Birmingham-Shuttlesworth International Airport

Airport
ICAO code: 
KBHM
IATA Code: 
BHM
Summary
ICAO Region: 
NAM
Territory: 
Location: 
Birmingham, Alabama,
Serving: 
Birmingham
Elevation: 
644 ft
Coordinates: 
Aerial View: 
33° 33' 43.603" N, 86° 45' 3.881" W
Metar
Observation
KBHM 020953Z 24004KT 10SM CLR 12/09 A3011 RMK AO2 SLP183 T01170089 $
Station
Birmingham, Birmingham International Airport
Date/Time
2021-12-02 09:53:00
Wind direction
240°
Wind speed
04 kts
Lowest cloud amount
n/a
Temperature
11.7°C
Dew point
8.9°C
Humidity
82%
Weather condition
n/a

Description

Civil/Military (USAF) international airport serving the city of Birmingham and central Alabama, USA.

Climatology

Humid “subtropical” climate (Köppen climate classification Cfa) - characterized by hot, humid summers and cool winters. Significant amounts of precipitation occur in all seasons in most areas. Winter rainfall (and sometimes snowfall) is associated with large storms that the westerlies steer from west to east. Most summer rainfall occurs during thunderstorms and occasional tropical storms (hurricanes).

Runways

Designator Length Width Surface Rops
18/36 2164 46 ASP Yes/Yes
6/24 3048 46 ASP Yes/Yes
Airport map: 
Aerial View: 

Accidents and Serious Incidents at or in the vicinity of KBHM

SKYbrary Partners:

Safety knowledge contributed by: